Time;durP1;ratioP1;P1;durP2;ratioP2;P2;SDS_P1;SDS_P2;PMS_P1;PMS_P2;Temp;Humidity;BMP_temperature;BMP_pressure;BME280_temperature;BME280_humidity;BME280_pressure;Samples;Min_cycle;Max_cycle;Signal;HPM_P1;HPM_P2
2023/12/24 00:00:30;;;;;;;9.33;3.07;;;;;;;;;;5012731;28;20260;-85
2023/12/24 00:02:59;;;;;;;7.70;2.53;;;;;;;;;;5013057;28;20199;-85
2023/12/24 00:05:29;;;;;;;7.17;4.17;;;;;;;;;;5012346;28;20226;-84
2023/12/24 00:07:57;;;;;;;6.03;2.73;;;;;;;;;;5012528;28;20267;-85
2023/12/24 00:10:26;;;;;;;8.10;3.33;;;;;;;;;;5013641;28;20210;-85
2023/12/24 00:12:57;;;;;;;5.87;2.40;;;;;;;;;;5013599;28;20234;-85
2023/12/24 00:15:25;;;;;;;17.53;2.73;;;;;;;;;;5014076;28;20206;-85
2023/12/24 00:17:55;;;;;;;14.53;3.20;;;;;;;;;;5012103;28;20207;-85
2023/12/24 00:20:24;;;;;;;8.03;3.23;;;;;;;;;;5013850;28;20195;-85
2023/12/24 00:23:05;;;;;;;7.87;2.70;;;;;;;;;;5012530;28;20290;-85
2023/12/24 00:25:33;;;;;;;13.07;3.77;;;;;;;;;;5012444;28;20205;-85
2023/12/24 00:28:04;;;;;;;7.17;4.37;;;;;;;;;;5012444;28;20273;-85
2023/12/24 00:30:33;;;;;;;8.40;2.80;;;;;;;;;;5012031;28;20216;-85
2023/12/24 00:33:01;;;;;;;7.67;2.23;;;;;;;;;;5012047;28;20203;-85
2023/12/24 00:35:31;;;;;;;16.87;5.93;;;;;;;;;;5013205;28;20215;-85
2023/12/24 00:38:00;;;;;;;15.03;5.03;;;;;;;;;;5012074;28;20207;-85
2023/12/24 00:40:29;;;;;;;10.70;4.20;;;;;;;;;;5011527;28;20207;-85
2023/12/24 00:42:59;;;;;;;7.00;2.60;;;;;;;;;;5012939;28;20233;-85
2023/12/24 00:45:31;;;;;;;7.07;2.60;;;;;;;;;;5011799;28;20216;-85
2023/12/24 00:48:00;;;;;;;9.13;2.93;;;;;;;;;;5011598;28;20202;-85
2023/12/24 00:50:29;;;;;;;14.77;3.03;;;;;;;;;;5012619;28;20223;-85
2023/12/24 00:52:58;;;;;;;6.13;2.97;;;;;;;;;;5011958;28;20288;-85
2023/12/24 00:55:27;;;;;;;14.30;4.97;;;;;;;;;;5011561;28;20213;-85
2023/12/24 00:57:56;;;;;;;13.47;2.87;;;;;;;;;;5011540;28;20202;-85
2023/12/24 01:00:24;;;;;;;3.77;2.47;;;;;;;;;;5011375;28;20307;-85
2023/12/24 01:02:55;;;;;;;9.87;3.37;;;;;;;;;;5011679;28;20209;-85
2023/12/24 01:05:23;;;;;;;9.17;3.23;;;;;;;;;;5011813;28;20225;-85
2023/12/24 01:07:52;;;;;;;13.03;3.13;;;;;;;;;;5011597;28;20237;-85
2023/12/24 01:10:23;;;;;;;7.73;3.20;;;;;;;;;;5011127;28;20229;-85
2023/12/24 01:12:51;;;;;;;11.30;4.63;;;;;;;;;;5011463;28;20206;-85
2023/12/24 01:15:20;;;;;;;19.20;3.73;;;;;;;;;;5011397;28;20288;-86
2023/12/24 01:17:49;;;;;;;5.47;2.50;;;;;;;;;;5011788;28;20214;-85
2023/12/24 01:20:21;;;;;;;13.73;4.37;;;;;;;;;;5011042;28;20249;-85
2023/12/24 01:22:51;;;;;;;17.93;3.57;;;;;;;;;;5011161;28;20200;-85
2023/12/24 01:25:20;;;;;;;25.53;3.73;;;;;;;;;;5011375;28;20203;-85
2023/12/24 01:27:53;;;;;;;11.13;2.77;;;;;;;;;;5011470;28;20226;-84
2023/12/24 01:30:22;;;;;;;7.33;2.83;;;;;;;;;;5011106;28;20195;-85
2023/12/24 01:32:51;;;;;;;8.87;2.77;;;;;;;;;;5011138;28;20201;-84
2023/12/24 01:35:21;;;;;;;12.67;4.47;;;;;;;;;;5011466;28;20202;-84
2023/12/24 01:37:52;;;;;;;8.27;2.77;;;;;;;;;;5011398;28;20249;-84
2023/12/24 01:40:20;;;;;;;12.90;4.97;;;;;;;;;;5011025;28;20233;-84
2023/12/24 01:42:49;;;;;;;5.50;2.70;;;;;;;;;;5012101;28;20196;-84
2023/12/24 01:45:18;;;;;;;9.37;2.50;;;;;;;;;;5012421;28;20257;-84
2023/12/24 01:47:47;;;;;;;12.73;4.93;;;;;;;;;;5012336;28;20450;-84
2023/12/24 01:50:22;;;;;;;8.67;3.60;;;;;;;;;;5012208;28;20286;-85
2023/12/24 01:52:50;;;;;;;10.33;2.50;;;;;;;;;;5010567;28;20220;-84
2023/12/24 01:55:21;;;;;;;13.33;3.83;;;;;;;;;;5011334;28;20225;-84
2023/12/24 01:57:50;;;;;;;11.23;4.67;;;;;;;;;;5012278;28;20194;-84
2023/12/24 02:00:19;;;;;;;23.00;4.03;;;;;;;;;;5010952;28;20219;-84
2023/12/24 02:02:49;;;;;;;10.60;3.00;;;;;;;;;;5010801;28;20212;-84
2023/12/24 02:05:19;;;;;;;16.23;5.20;;;;;;;;;;5010707;28;20214;-84
2023/12/24 02:07:50;;;;;;;6.40;3.40;;;;;;;;;;5011831;28;20263;-84
2023/12/24 02:10:19;;;;;;;18.73;5.50;;;;;;;;;;5012076;28;20194;-84
2023/12/24 02:12:47;;;;;;;9.17;4.17;;;;;;;;;;5011082;28;20198;-84
2023/12/24 02:15:17;;;;;;;16.40;3.60;;;;;;;;;;5010899;28;20256;-84
2023/12/24 02:17:46;;;;;;;11.00;3.63;;;;;;;;;;5011073;28;20238;-84
2023/12/24 02:20:14;;;;;;;15.00;3.73;;;;;;;;;;5010757;28;20235;-84
2023/12/24 02:22:45;;;;;;;12.90;3.87;;;;;;;;;;5011715;28;20203;-85
2023/12/24 02:25:13;;;;;;;9.87;2.70;;;;;;;;;;5011001;28;20199;-88
2023/12/24 02:27:47;;;;;;;10.60;3.77;;;;;;;;;;5010638;28;20195;-88
2023/12/24 02:30:18;;;;;;;11.00;2.97;;;;;;;;;;5011020;28;20292;-88
2023/12/24 02:32:47;;;;;;;23.33;5.20;;;;;;;;;;5010465;28;20271;-88
2023/12/24 02:35:16;;;;;;;9.83;3.30;;;;;;;;;;5010690;28;20202;-88
2023/12/24 02:37:46;;;;;;;19.87;5.43;;;;;;;;;;5010549;28;20206;-88
2023/12/24 02:40:15;;;;;;;9.43;3.33;;;;;;;;;;5010627;28;20253;-88
2023/12/24 02:42:44;;;;;;;9.03;2.77;;;;;;;;;;5010281;28;20223;-89
2023/12/24 02:45:13;;;;;;;9.63;3.40;;;;;;;;;;5009975;28;20255;-87
2023/12/24 02:47:41;;;;;;;10.67;3.07;;;;;;;;;;5010400;28;20209;-88
2023/12/24 02:50:12;;;;;;;19.20;3.90;;;;;;;;;;5010612;28;20205;-88
2023/12/24 02:52:41;;;;;;;11.67;3.83;;;;;;;;;;5010302;28;20225;-88
2023/12/24 02:55:11;;;;;;;9.07;4.60;;;;;;;;;;5010607;28;20243;-88
2023/12/24 02:57:40;;;;;;;15.57;5.37;;;;;;;;;;5010736;28;20212;-88
2023/12/24 03:00:09;;;;;;;9.30;2.87;;;;;;;;;;5011571;28;20219;-88
2023/12/24 03:02:39;;;;;;;8.90;2.87;;;;;;;;;;5011452;28;20202;-88
2023/12/24 03:05:08;;;;;;;12.80;5.43;;;;;;;;;;5013626;28;20228;-88
2023/12/24 03:07:37;;;;;;;11.13;3.80;;;;;;;;;;5013851;28;20233;-88
2023/12/24 03:10:09;;;;;;;7.60;2.83;;;;;;;;;;5013915;28;20294;-88
2023/12/24 03:12:41;;;;;;;6.63;3.27;;;;;;;;;;5013738;28;20210;-88
2023/12/24 03:15:14;;;;;;;10.23;4.10;;;;;;;;;;5013523;28;20198;-88
2023/12/24 03:17:43;;;;;;;9.70;4.40;;;;;;;;;;5014127;28;20204;-87
2023/12/24 03:20:12;;;;;;;11.10;5.43;;;;;;;;;;5013940;28;20312;-88
2023/12/24 03:22:41;;;;;;;17.17;6.07;;;;;;;;;;5013731;28;20213;-88
2023/12/24 03:25:11;;;;;;;9.17;4.30;;;;;;;;;;5014624;28;20202;-88
2023/12/24 03:27:42;;;;;;;11.83;4.87;;;;;;;;;;5014276;28;20201;-88
2023/12/24 03:30:13;;;;;;;8.83;4.63;;;;;;;;;;5013829;28;20547;-88
2023/12/24 03:32:41;;;;;;;6.17;3.13;;;;;;;;;;5013886;28;20191;-87
2023/12/24 03:35:13;;;;;;;10.20;5.33;;;;;;;;;;5013163;28;20305;-88
2023/12/24 03:37:41;;;;;;;9.23;3.97;;;;;;;;;;5013501;28;20248;-88
2023/12/24 03:40:13;;;;;;;17.13;4.50;;;;;;;;;;5013456;28;20231;-88
2023/12/24 03:42:43;;;;;;;7.23;3.87;;;;;;;;;;5014811;28;20229;-88
2023/12/24 03:45:11;;;;;;;10.63;5.20;;;;;;;;;;5012896;28;20218;-88
2023/12/24 03:47:40;;;;;;;20.20;5.40;;;;;;;;;;5013110;28;20213;-88
2023/12/24 03:50:09;;;;;;;11.07;4.60;;;;;;;;;;5013145;28;20189;-88
2023/12/24 03:52:38;;;;;;;10.97;4.57;;;;;;;;;;5012974;28;20195;-88
2023/12/24 03:55:06;;;;;;;9.17;4.80;;;;;;;;;;5013497;28;20288;-86
2023/12/24 03:57:35;;;;;;;23.60;5.93;;;;;;;;;;5012722;28;20200;-87
2023/12/24 04:00:06;;;;;;;20.33;5.53;;;;;;;;;;5012964;28;20238;-88
2023/12/24 04:02:34;;;;;;;11.27;5.77;;;;;;;;;;5012511;28;20203;-88
2023/12/24 04:05:03;;;;;;;8.53;4.53;;;;;;;;;;5012732;28;20309;-87
2023/12/24 04:07:32;;;;;;;10.97;4.80;;;;;;;;;;5012355;28;20398;-88
2023/12/24 04:10:01;;;;;;;8.97;3.47;;;;;;;;;;5012996;28;20207;-87
2023/12/24 04:12:29;;;;;;;11.93;4.83;;;;;;;;;;5014263;28;20210;-88
2023/12/24 04:14:58;;;;;;;8.77;4.53;;;;;;;;;;5013010;28;20254;-88
2023/12/24 04:17:28;;;;;;;18.73;5.00;;;;;;;;;;5013633;28;20199;-87
2023/12/24 04:19:57;;;;;;;12.70;6.73;;;;;;;;;;5012848;28;20205;-87
2023/12/24 04:22:26;;;;;;;16.43;5.43;;;;;;;;;;5012609;28;20196;-87
2023/12/24 04:24:54;;;;;;;10.77;5.07;;;;;;;;;;5012211;28;20204;-87
2023/12/24 04:27:23;;;;;;;12.83;6.17;;;;;;;;;;5013121;28;20258;-88
2023/12/24 04:29:52;;;;;;;10.70;5.30;;;;;;;;;;5012534;28;20199;-88
2023/12/24 04:32:21;;;;;;;23.57;7.20;;;;;;;;;;5013320;28;20211;-88
2023/12/24 04:34:51;;;;;;;15.80;6.20;;;;;;;;;;5013363;28;20203;-88
2023/12/24 04:37:20;;;;;;;15.40;4.80;;;;;;;;;;5011981;28;20202;-88
2023/12/24 04:39:49;;;;;;;10.50;4.60;;;;;;;;;;5012384;28;20207;-87
2023/12/24 04:42:18;;;;;;;15.00;3.70;;;;;;;;;;5012368;28;20301;-88
2023/12/24 04:44:46;;;;;;;13.47;3.53;;;;;;;;;;5012052;28;20200;-88
2023/12/24 04:47:18;;;;;;;16.43;6.17;;;;;;;;;;5011631;28;20256;-88
2023/12/24 04:49:47;;;;;;;14.60;6.17;;;;;;;;;;5013615;28;20293;-88
2023/12/24 04:52:17;;;;;;;23.23;4.83;;;;;;;;;;5013577;28;20196;-88
2023/12/24 04:54:46;;;;;;;10.20;4.67;;;;;;;;;;5012719;28;20235;-88
2023/12/24 04:57:17;;;;;;;31.63;5.63;;;;;;;;;;5011634;28;20203;-88
2023/12/24 04:59:46;;;;;;;18.23;4.53;;;;;;;;;;5012071;28;20200;-88
2023/12/24 05:02:15;;;;;;;19.90;4.87;;;;;;;;;;5012051;28;20236;-88
2023/12/24 05:04:43;;;;;;;8.57;3.93;;;;;;;;;;5011319;28;20209;-88
2023/12/24 05:07:12;;;;;;;11.47;3.43;;;;;;;;;;5011280;28;20206;-88
2023/12/24 05:09:44;;;;;;;15.60;4.40;;;;;;;;;;5013063;28;20239;-87
2023/12/24 05:12:14;;;;;;;7.93;3.90;;;;;;;;;;5011606;28;20295;-88
2023/12/24 05:14:43;;;;;;;10.17;3.57;;;;;;;;;;5011656;28;20203;-88
2023/12/24 05:17:11;;;;;;;7.90;4.70;;;;;;;;;;5012295;28;20231;-87
2023/12/24 05:19:40;;;;;;;13.73;6.43;;;;;;;;;;5011705;28;20207;-88
2023/12/24 05:22:10;;;;;;;26.03;8.10;;;;;;;;;;5011691;28;20215;-88
2023/12/24 05:24:39;;;;;;;20.23;5.53;;;;;;;;;;5011385;28;20211;-87
2023/12/24 05:27:10;;;;;;;16.07;6.90;;;;;;;;;;5010012;28;20253;-88
2023/12/24 05:29:38;;;;;;;15.77;5.80;;;;;;;;;;5011735;28;20203;-88
2023/12/24 05:32:07;;;;;;;14.30;6.23;;;;;;;;;;5011291;28;20286;-88
2023/12/24 05:34:36;;;;;;;14.20;5.80;;;;;;;;;;5012459;28;20195;-88
2023/12/24 05:37:05;;;;;;;15.83;5.73;;;;;;;;;;5010499;28;20211;-87
2023/12/24 05:39:33;;;;;;;9.33;4.50;;;;;;;;;;5012099;28;20204;-88
2023/12/24 05:42:03;;;;;;;12.47;5.37;;;;;;;;;;5011417;28;20224;-88
2023/12/24 05:44:35;;;;;;;16.97;5.07;;;;;;;;;;5012508;28;20227;-88
2023/12/24 05:47:04;;;;;;;10.90;4.63;;;;;;;;;;5010378;28;20207;-88
2023/12/24 05:49:33;;;;;;;15.37;4.90;;;;;;;;;;5010881;28;20194;-88
2023/12/24 05:52:02;;;;;;;17.53;5.30;;;;;;;;;;5011032;28;20250;-88
2023/12/24 05:54:31;;;;;;;11.17;3.07;;;;;;;;;;5011181;28;20321;-88
2023/12/24 05:56:59;;;;;;;13.57;7.50;;;;;;;;;;5010635;28;20214;-88
2023/12/24 05:59:28;;;;;;;15.90;4.93;;;;;;;;;;5011018;28;20207;-86
2023/12/24 06:01:58;;;;;;;19.63;9.00;;;;;;;;;;5011273;28;20207;-85
2023/12/24 06:04:27;;;;;;;12.83;5.30;;;;;;;;;;5011018;28;20203;-86
2023/12/24 06:06:55;;;;;;;22.03;8.63;;;;;;;;;;5011250;28;20346;-88
2023/12/24 06:09:25;;;;;;;13.70;4.80;;;;;;;;;;5010644;28;20263;-88
2023/12/24 06:11:53;;;;;;;13.67;4.60;;;;;;;;;;5011298;28;20211;-88
2023/12/24 06:14:22;;;;;;;15.57;4.73;;;;;;;;;;5011151;28;20335;-88
2023/12/24 06:16:51;;;;;;;11.97;5.07;;;;;;;;;;5010553;28;20206;-88
2023/12/24 06:19:21;;;;;;;15.80;4.70;;;;;;;;;;5010598;28;20215;-87
2023/12/24 06:21:50;;;;;;;20.00;6.40;;;;;;;;;;5011998;28;20208;-88
2023/12/24 06:24:20;;;;;;;17.07;4.80;;;;;;;;;;5012369;28;20231;-88
2023/12/24 06:26:49;;;;;;;12.70;4.70;;;;;;;;;;5010575;28;20202;-88
2023/12/24 06:29:18;;;;;;;9.67;3.77;;;;;;;;;;5010421;28;20334;-88
2023/12/24 06:31:47;;;;;;;7.27;3.33;;;;;;;;;;5010693;28;20194;-88
2023/12/24 06:34:16;;;;;;;14.03;5.63;;;;;;;;;;5010757;28;20203;-87
2023/12/24 06:36:46;;;;;;;6.83;3.27;;;;;;;;;;5011134;28;20204;-88
2023/12/24 06:39:14;;;;;;;24.20;4.60;;;;;;;;;;5013963;28;20207;-88
2023/12/24 06:41:45;;;;;;;18.87;5.03;;;;;;;;;;5014855;28;20314;-87
2023/12/24 06:44:14;;;;;;;6.70;3.37;;;;;;;;;;5014433;28;20214;-88
2023/12/24 06:46:43;;;;;;;14.13;4.63;;;;;;;;;;5013919;28;20209;-88
2023/12/24 06:49:11;;;;;;;14.90;4.53;;;;;;;;;;5013944;28;20199;-88
2023/12/24 06:51:40;;;;;;;20.20;5.73;;;;;;;;;;5014532;28;20290;-88
2023/12/24 06:54:10;;;;;;;16.63;5.47;;;;;;;;;;5014956;28;20200;-88
2023/12/24 06:56:39;;;;;;;12.17;3.50;;;;;;;;;;5014078;28;20200;-88
2023/12/24 06:59:07;;;;;;;13.50;4.37;;;;;;;;;;5013318;28;20204;-88
2023/12/24 07:01:36;;;;;;;18.33;4.73;;;;;;;;;;5013952;28;20210;-88
2023/12/24 07:04:05;;;;;;;7.90;4.17;;;;;;;;;;5013665;28;20299;-88
2023/12/24 07:06:34;;;;;;;17.17;5.37;;;;;;;;;;5013832;28;20230;-88
2023/12/24 07:09:02;;;;;;;18.77;3.27;;;;;;;;;;5013325;28;20537;-88
2023/12/24 07:11:32;;;;;;;16.23;4.97;;;;;;;;;;5013566;28;20196;-88
2023/12/24 07:14:01;;;;;;;12.73;4.60;;;;;;;;;;5014849;28;20208;-87
2023/12/24 07:16:30;;;;;;;15.30;4.07;;;;;;;;;;5013539;28;20212;-88
2023/12/24 07:19:02;;;;;;;23.07;6.17;;;;;;;;;;5013214;28;20462;-88
2023/12/24 07:21:31;;;;;;;16.07;3.70;;;;;;;;;;5013448;28;20297;-88
2023/12/24 07:24:00;;;;;;;19.33;5.23;;;;;;;;;;5013909;28;20199;-88
2023/12/24 07:26:28;;;;;;;15.30;4.73;;;;;;;;;;5013652;28;20204;-87
2023/12/24 07:28:59;;;;;;;10.63;4.23;;;;;;;;;;5014398;28;20331;-88
2023/12/24 07:31:28;;;;;;;13.03;4.00;;;;;;;;;;5013448;28;20203;-88
2023/12/24 07:33:56;;;;;;;11.10;2.87;;;;;;;;;;5013056;28;20203;-88
2023/12/24 07:36:25;;;;;;;10.90;4.20;;;;;;;;;;5013103;28;20219;-88
2023/12/24 07:38:53;;;;;;;12.70;5.37;;;;;;;;;;5012576;28;20206;-89
2023/12/24 07:41:25;;;;;;;18.57;4.83;;;;;;;;;;5012789;28;20196;-88
2023/12/24 07:43:55;;;;;;;14.97;5.27;;;;;;;;;;5013700;28;20238;-87
2023/12/24 07:46:24;;;;;;;6.57;2.13;;;;;;;;;;5013169;28;20195;-88
2023/12/24 07:48:52;;;;;;;17.37;5.67;;;;;;;;;;5012107;28;20208;-87
2023/12/24 07:51:21;;;;;;;14.50;4.23;;;;;;;;;;5014248;28;20208;-88
2023/12/24 07:53:50;;;;;;;17.03;4.37;;;;;;;;;;5013839;28;20200;-88
2023/12/24 07:56:18;;;;;;;17.37;3.90;;;;;;;;;;5012943;28;20203;-88
2023/12/24 07:58:47;;;;;;;25.90;4.27;;;;;;;;;;5012704;28;20203;-85
2023/12/24 08:01:16;;;;;;;16.47;3.87;;;;;;;;;;5012737;28;20298;-85
2023/12/24 08:03:46;;;;;;;24.97;5.73;;;;;;;;;;5012919;28;20223;-84
2023/12/24 08:06:18;;;;;;;11.43;3.67;;;;;;;;;;5013004;28;20219;-85
2023/12/24 08:08:56;;;;;;;14.93;4.47;;;;;;;;;;5012742;28;20267;-85
2023/12/24 08:11:25;;;;;;;17.07;4.87;;;;;;;;;;5013489;28;20226;-85
2023/12/24 08:13:55;;;;;;;27.57;5.90;;;;;;;;;;5012486;28;20210;-85
2023/12/24 08:16:23;;;;;;;11.07;3.83;;;;;;;;;;5012213;28;20204;-85
2023/12/24 08:18:55;;;;;;;17.13;4.37;;;;;;;;;;5013604;28;20196;-85
2023/12/24 08:21:24;;;;;;;7.87;2.63;;;;;;;;;;5012303;28;20195;-84
2023/12/24 08:23:52;;;;;;;9.87;4.13;;;;;;;;;;5012625;28;20314;-84
2023/12/24 08:26:21;;;;;;;12.00;3.47;;;;;;;;;;5011247;28;20208;-85
2023/12/24 08:28:50;;;;;;;10.03;3.83;;;;;;;;;;5012386;28;20204;-85
2023/12/24 08:31:18;;;;;;;10.27;2.40;;;;;;;;;;5011575;28;20200;-85
2023/12/24 08:33:47;;;;;;;15.77;4.50;;;;;;;;;;5011843;28;20195;-85
2023/12/24 08:36:17;;;;;;;15.90;5.50;;;;;;;;;;5011995;28;20214;-85
2023/12/24 08:38:46;;;;;;;15.20;5.43;;;;;;;;;;5011381;28;20261;-85
2023/12/24 08:41:15;;;;;;;34.10;4.93;;;;;;;;;;5010772;28;20242;-85
2023/12/24 08:43:44;;;;;;;9.60;3.13;;;;;;;;;;5010989;28;20212;-85
2023/12/24 08:46:12;;;;;;;13.57;4.50;;;;;;;;;;5011637;28;20210;-85
2023/12/24 08:48:41;;;;;;;16.70;5.67;;;;;;;;;;5013256;28;20206;-84
2023/12/24 08:51:10;;;;;;;17.60;7.60;;;;;;;;;;5011475;28;20206;-85
2023/12/24 08:53:41;;;;;;;9.70;3.40;;;;;;;;;;5011883;28;20200;-85
2023/12/24 08:56:10;;;;;;;17.93;4.23;;;;;;;;;;5011723;28;20199;-85
2023/12/24 08:58:39;;;;;;;8.13;2.77;;;;;;;;;;5012043;28;20200;-85
2023/12/24 09:01:08;;;;;;;4.10;2.63;;;;;;;;;;5011209;28;20234;-84
2023/12/24 09:03:39;;;;;;;13.67;4.43;;;;;;;;;;5011303;28;20212;-85
2023/12/24 09:06:07;;;;;;;14.80;4.70;;;;;;;;;;5027679;28;20247;-85
2023/12/24 09:08:38;;;;;;;15.87;4.30;;;;;;;;;;5007040;28;20245;-85
2023/12/24 09:11:08;;;;;;;9.13;4.07;;;;;;;;;;4992360;28;20223;-84
2023/12/24 09:13:37;;;;;;;5.00;2.40;;;;;;;;;;4992077;28;20196;-85
2023/12/24 09:16:06;;;;;;;9.53;3.13;;;;;;;;;;4991519;28;20215;-83
2023/12/24 09:18:35;;;;;;;13.73;2.87;;;;;;;;;;5008915;28;20250;-83
2023/12/24 09:21:04;;;;;;;13.27;3.60;;;;;;;;;;5010806;28;20230;-84
2023/12/24 09:23:33;;;;;;;11.97;3.83;;;;;;;;;;5010531;28;20265;-83
2023/12/24 09:26:02;;;;;;;15.53;5.13;;;;;;;;;;5011482;28;20208;-84
2023/12/24 09:28:35;;;;;;;20.10;6.33;;;;;;;;;;5011587;28;20195;-84
2023/12/24 09:31:04;;;;;;;14.07;3.83;;;;;;;;;;5011028;28;20214;-84
2023/12/24 09:33:33;;;;;;;6.50;2.93;;;;;;;;;;5011218;28;20200;-84
2023/12/24 09:36:07;;;;;;;10.23;3.97;;;;;;;;;;5011441;28;20215;-83
2023/12/24 09:38:36;;;;;;;16.90;4.97;;;;;;;;;;5011016;28;20203;-83
2023/12/24 09:41:05;;;;;;;21.07;4.90;;;;;;;;;;5010568;28;20211;-84
2023/12/24 09:43:39;;;;;;;8.03;3.53;;;;;;;;;;5008901;28;20215;-84
2023/12/24 09:46:08;;;;;;;15.13;4.17;;;;;;;;;;5011858;28;20206;-84
2023/12/24 09:48:37;;;;;;;27.77;4.53;;;;;;;;;;5011264;28;20204;-83
2023/12/24 09:51:08;;;;;;;23.60;9.40;;;;;;;;;;5010870;28;20291;-84
2023/12/24 09:53:37;;;;;;;15.97;4.77;;;;;;;;;;5011620;28;20231;-84
2023/12/24 09:56:08;;;;;;;9.60;3.37;;;;;;;;;;5011191;28;20191;-84
2023/12/24 09:58:38;;;;;;;9.10;3.60;;;;;;;;;;5010124;28;20208;-84
2023/12/24 10:01:07;;;;;;;7.73;3.23;;;;;;;;;;5010756;28;20291;-83
2023/12/24 10:03:35;;;;;;;7.20;3.03;;;;;;;;;;5010055;28;20219;-84
2023/12/24 10:06:08;;;;;;;9.70;3.63;;;;;;;;;;5010636;28;20224;-84
2023/12/24 10:08:38;;;;;;;11.20;3.70;;;;;;;;;;5010505;28;20335;-83
2023/12/24 10:11:15;;;;;;;18.30;5.17;;;;;;;;;;5010866;28;20290;-85
2023/12/24 10:13:46;;;;;;;15.27;3.80;;;;;;;;;;5013527;28;20202;-83
2023/12/24 10:16:15;;;;;;;11.63;4.47;;;;;;;;;;5014673;28;20298;-83
2023/12/24 10:18:49;;;;;;;19.03;4.40;;;;;;;;;;5015918;28;20199;-84
2023/12/24 10:21:19;;;;;;;8.83;2.70;;;;;;;;;;5015758;28;20285;-84
2023/12/24 10:23:48;;;;;;;8.20;2.90;;;;;;;;;;5014593;28;20223;-84
2023/12/24 10:26:17;;;;;;;18.87;4.60;;;;;;;;;;5014655;28;20195;-85
2023/12/24 10:28:51;;;;;;;16.97;5.17;;;;;;;;;;5015874;28;20192;-84
2023/12/24 10:31:29;;;;;;;16.77;5.50;;;;;;;;;;5014689;28;20203;-84
2023/12/24 10:34:01;;;;;;;11.30;4.37;;;;;;;;;;5014557;28;20286;-84
2023/12/24 10:36:30;;;;;;;14.73;5.23;;;;;;;;;;5015650;28;20218;-84
2023/12/24 10:38:59;;;;;;;22.93;6.10;;;;;;;;;;5015012;28;20266;-84
2023/12/24 10:41:27;;;;;;;14.30;3.93;;;;;;;;;;5015294;28;20195;-84
2023/12/24 10:43:57;;;;;;;16.90;5.30;;;;;;;;;;5014259;28;20269;-84
2023/12/24 10:46:29;;;;;;;18.27;4.63;;;;;;;;;;5014403;28;20249;-84
2023/12/24 10:48:58;;;;;;;12.27;3.80;;;;;;;;;;5014534;28;20196;-83
2023/12/24 10:51:28;;;;;;;20.23;6.03;;;;;;;;;;5014483;28;20196;-84
2023/12/24 10:53:57;;;;;;;10.47;4.47;;;;;;;;;;5015394;28;20199;-84
2023/12/24 10:56:29;;;;;;;16.77;3.87;;;;;;;;;;5014241;28;20262;-84
2023/12/24 10:59:01;;;;;;;17.43;4.10;;;;;;;;;;5015190;28;20298;-84
2023/12/24 11:01:31;;;;;;;16.63;4.07;;;;;;;;;;5014555;28;20203;-84
2023/12/24 11:03:59;;;;;;;14.30;5.63;;;;;;;;;;5014572;28;20270;-85
2023/12/24 11:06:46;;;;;;;15.70;5.50;;;;;;;;;;5015251;28;20227;-83
2023/12/24 11:09:33;;;;;;;18.93;6.13;;;;;;;;;;5014561;28;20273;-84
2023/12/24 11:12:07;;;;;;;16.63;4.87;;;;;;;;;;5005053;28;20212;-88
2023/12/24 11:14:40;;;;;;;12.27;4.50;;;;;;;;;;5013435;28;20207;-84
2023/12/24 11:17:09;;;;;;;24.63;6.13;;;;;;;;;;5013811;28;20226;-84
2023/12/24 11:19:41;;;;;;;24.23;5.30;;;;;;;;;;5014160;28;20223;-84
2023/12/24 11:22:11;;;;;;;18.53;5.23;;;;;;;;;;5015144;28;20206;-84
2023/12/24 11:24:43;;;;;;;16.43;3.87;;;;;;;;;;5012000;28;20215;-84
2023/12/24 11:27:22;;;;;;;17.40;5.33;;;;;;;;;;5013810;28;20238;-83
2023/12/24 11:29:52;;;;;;;19.47;5.17;;;;;;;;;;5014063;28;20203;-83
2023/12/24 11:32:35;;;;;;;15.70;4.07;;;;;;;;;;5013837;28;20207;-86
2023/12/24 11:35:06;;;;;;;26.20;6.20;;;;;;;;;;5013142;28;20285;-85
2023/12/24 11:37:40;;;;;;;14.63;5.27;;;;;;;;;;5013567;28;20286;-88
2023/12/24 11:40:12;;;;;;;18.37;4.83;;;;;;;;;;5015106;28;20225;-86
2023/12/24 11:42:43;;;;;;;16.67;5.23;;;;;;;;;;5013427;28;20204;-86
2023/12/24 11:45:29;;;;;;;15.40;3.93;;;;;;;;;;5014290;28;20207;-85
2023/12/24 11:48:01;;;;;;;19.27;4.20;;;;;;;;;;5013461;28;20204;-85
2023/12/24 11:50:30;;;;;;;14.13;4.47;;;;;;;;;;5013683;28;20231;-85
2023/12/24 11:52:59;;;;;;;18.17;6.37;;;;;;;;;;5013202;28;20206;-84
2023/12/24 11:55:28;;;;;;;16.87;4.53;;;;;;;;;;5012812;28;20188;-85
2023/12/24 11:57:56;;;;;;;18.87;6.07;;;;;;;;;;5013129;28;20212;-85
2023/12/24 12:00:29;;;;;;;25.40;8.37;;;;;;;;;;5013075;28;20200;-85
2023/12/24 12:03:03;;;;;;;12.97;4.57;;;;;;;;;;5013280;28;20200;-84
2023/12/24 12:05:35;;;;;;;19.27;6.13;;;;;;;;;;5012598;28;20231;-84
2023/12/24 12:08:04;;;;;;;12.87;4.70;;;;;;;;;;5013664;28;20266;-83
2023/12/24 12:10:33;;;;;;;12.97;5.80;;;;;;;;;;5013196;28;20204;-84
2023/12/24 12:13:05;;;;;;;34.27;7.73;;;;;;;;;;5014166;28;20196;-88
2023/12/24 12:15:39;;;;;;;29.30;6.90;;;;;;;;;;5013892;28;20184;-86
2023/12/24 12:18:14;;;;;;;17.90;4.73;;;;;;;;;;5012593;28;20207;-84
2023/12/24 12:20:43;;;;;;;12.87;4.63;;;;;;;;;;5012756;28;20202;-84
2023/12/24 12:23:12;;;;;;;19.10;4.53;;;;;;;;;;5014088;28;20228;-84
2023/12/24 12:25:41;;;;;;;23.80;6.10;;;;;;;;;;5012843;28;20250;-84
2023/12/24 12:28:10;;;;;;;12.00;3.93;;;;;;;;;;5012800;28;20199;-83
2023/12/24 12:30:45;;;;;;;13.07;4.93;;;;;;;;;;5014227;28;20199;-83
2023/12/24 12:33:14;;;;;;;10.53;3.73;;;;;;;;;;5013111;28;20288;-83
2023/12/24 12:35:43;;;;;;;12.87;4.80;;;;;;;;;;5012429;28;20200;-83
2023/12/24 12:38:12;;;;;;;22.90;4.63;;;;;;;;;;5012327;28;20195;-83
2023/12/24 12:40:41;;;;;;;17.40;4.03;;;;;;;;;;5013581;28;20206;-83
2023/12/24 12:43:16;;;;;;;15.43;3.90;;;;;;;;;;5013398;28;20319;-83
2023/12/24 12:45:49;;;;;;;16.90;3.47;;;;;;;;;;5012881;28;20229;-83
2023/12/24 12:48:20;;;;;;;12.63;4.70;;;;;;;;;;5012590;28;20203;-83
2023/12/24 12:50:49;;;;;;;10.13;4.17;;;;;;;;;;5013234;28;20200;-83
2023/12/24 12:53:24;;;;;;;17.93;6.27;;;;;;;;;;5012629;28;20204;-83
2023/12/24 12:56:00;;;;;;;18.10;5.53;;;;;;;;;;5013726;28;20274;-83
2023/12/24 12:58:29;;;;;;;20.77;4.40;;;;;;;;;;5012743;28;20207;-83
2023/12/24 13:01:00;;;;;;;20.50;6.10;;;;;;;;;;5013899;28;20199;-83
2023/12/24 13:03:29;;;;;;;17.73;4.30;;;;;;;;;;5013981;28;20297;-82
2023/12/24 13:05:58;;;;;;;24.57;5.97;;;;;;;;;;5012619;28;20255;-82
2023/12/24 13:08:29;;;;;;;17.77;5.67;;;;;;;;;;5012155;28;20235;-82
2023/12/24 13:11:06;;;;;;;16.37;5.83;;;;;;;;;;5012554;28;20208;-81
2023/12/24 13:13:35;;;;;;;19.00;6.60;;;;;;;;;;5012727;28;20228;-82
2023/12/24 13:16:06;;;;;;;19.47;4.20;;;;;;;;;;5012536;28;20192;-82
2023/12/24 13:18:35;;;;;;;18.23;5.23;;;;;;;;;;5012169;28;20297;-82
2023/12/24 13:21:07;;;;;;;12.50;3.57;;;;;;;;;;5012574;28;20267;-82
2023/12/24 13:23:36;;;;;;;20.50;5.80;;;;;;;;;;5012027;28;20199;-82
2023/12/24 13:26:05;;;;;;;24.93;7.07;;;;;;;;;;5013457;28;20231;-81
2023/12/24 13:28:34;;;;;;;14.70;5.63;;;;;;;;;;5011985;28;20219;-82
2023/12/24 13:31:07;;;;;;;12.30;5.20;;;;;;;;;;5012440;28;20191;-82
2023/12/24 13:33:36;;;;;;;25.37;5.33;;;;;;;;;;5012737;28;20203;-82
2023/12/24 13:36:08;;;;;;;21.57;6.37;;;;;;;;;;5012595;28;20205;-82
2023/12/24 13:38:36;;;;;;;16.10;4.80;;;;;;;;;;5013144;28;20291;-81
2023/12/24 13:41:05;;;;;;;19.73;3.73;;;;;;;;;;5012135;28;20206;-82
2023/12/24 13:43:34;;;;;;;22.80;7.47;;;;;;;;;;5012015;28;20299;-82
2023/12/24 13:46:02;;;;;;;19.73;5.60;;;;;;;;;;5012176;28;20222;-82
2023/12/24 13:48:32;;;;;;;23.97;7.20;;;;;;;;;;5012241;28;20195;-82
2023/12/24 13:51:02;;;;;;;15.73;5.97;;;;;;;;;;5011697;28;20249;-82
2023/12/24 13:53:30;;;;;;;14.20;5.70;;;;;;;;;;5012057;28;20211;-82
2023/12/24 13:56:01;;;;;;;22.83;5.70;;;;;;;;;;5011963;28;20187;-81
2023/12/24 13:58:31;;;;;;;20.10;5.93;;;;;;;;;;5011717;28;20203;-82
2023/12/24 14:01:03;;;;;;;20.03;4.10;;;;;;;;;;5012803;28;20204;-82
2023/12/24 14:03:33;;;;;;;15.03;3.60;;;;;;;;;;5012153;28;20293;-82
2023/12/24 14:06:03;;;;;;;22.40;6.00;;;;;;;;;;5011918;28;20222;-81
2023/12/24 14:08:33;;;;;;;9.80;4.53;;;;;;;;;;5011105;28;20235;-81
2023/12/24 14:11:01;;;;;;;17.73;2.87;;;;;;;;;;5012599;28;20203;-81
2023/12/24 14:13:30;;;;;;;6.53;3.23;;;;;;;;;;5013089;28;20199;-82
2023/12/24 14:15:59;;;;;;;20.77;4.03;;;;;;;;;;5012012;28;20203;-82
2023/12/24 14:18:32;;;;;;;11.70;2.43;;;;;;;;;;5011321;28;20211;-81
2023/12/24 14:21:01;;;;;;;6.50;2.43;;;;;;;;;;5011135;28;20209;-81
2023/12/24 14:23:30;;;;;;;11.60;3.47;;;;;;;;;;5012688;28;20203;-81
2023/12/24 14:25:58;;;;;;;10.53;3.90;;;;;;;;;;5011777;28;20310;-82
2023/12/24 14:28:27;;;;;;;6.57;2.77;;;;;;;;;;5011406;28;20204;-82
2023/12/24 14:30:56;;;;;;;14.17;4.90;;;;;;;;;;5011042;28;20200;-82
2023/12/24 14:33:24;;;;;;;7.73;3.47;;;;;;;;;;5011444;28;20222;-82
2023/12/24 14:35:55;;;;;;;11.93;3.17;;;;;;;;;;5011532;28;20208;-82
2023/12/24 14:38:23;;;;;;;14.27;4.03;;;;;;;;;;5011322;28;20297;-81
2023/12/24 14:40:52;;;;;;;9.70;3.10;;;;;;;;;;5011055;28;20219;-81
2023/12/24 14:43:23;;;;;;;2.23;2.00;;;;;;;;;;5011384;28;20234;-82
2023/12/24 14:45:51;;;;;;;9.27;3.67;;;;;;;;;;5011540;28;20211;-82
2023/12/24 14:48:20;;;;;;;27.87;5.47;;;;;;;;;;5010995;28;20258;-82